createdAt,value
2022-09-05T00:00:23.086Z,3.40
2022-09-05T00:03:04.908Z,3.50
2022-09-05T00:05:39.870Z,3.15
2022-09-05T00:08:30.573Z,3.28
2022-09-05T00:11:42.751Z,3.05
2022-09-05T00:13:59.261Z,3.75
2022-09-05T00:16:40.929Z,3.70
2022-09-05T00:23:54.234Z,3.35
2022-09-05T00:24:31.894Z,3.33
2022-09-05T00:25:30.679Z,3.58
2022-09-05T00:27:56.113Z,3.95
2022-09-05T00:31:07.719Z,3.47
2022-09-05T00:33:26.463Z,3.38
2022-09-05T00:36:12.567Z,3.55
2022-09-05T00:38:42.191Z,3.00
2022-09-05T00:41:13.909Z,3.53
2022-09-05T00:43:43.228Z,3.20
2022-09-05T00:46:15.665Z,3.40
2022-09-05T00:48:48.804Z,3.30
2022-09-05T00:51:28.592Z,3.60
2022-09-05T00:54:13.657Z,3.85
2022-09-05T00:56:55.602Z,3.47
2022-09-05T00:59:42.668Z,3.60
2022-09-05T01:02:24.883Z,3.40
2022-09-05T01:04:55.602Z,3.70
2022-09-05T01:07:28.628Z,3.38
2022-09-05T01:10:04.444Z,3.20
2022-09-05T01:12:50.346Z,3.42
2022-09-05T01:15:32.411Z,3.25
2022-09-05T01:18:15.365Z,3.42
2022-09-05T01:20:51.967Z,3.33
2022-09-05T01:23:35.185Z,3.63
2022-09-05T01:26:33.197Z,3.47
2022-09-05T01:29:16.104Z,3.97
2022-09-05T01:31:50.275Z,3.70
2022-09-05T01:34:31.393Z,4.00
2022-09-05T01:37:05.093Z,4.20
2022-09-05T01:40:14.921Z,3.28
2022-09-05T01:42:31.862Z,3.58
2022-09-05T01:45:04.435Z,3.65
2022-09-05T01:47:45.063Z,3.75
2022-09-05T01:50:26.711Z,3.85
2022-09-05T01:53:05.818Z,3.60
2022-09-05T01:56:04.518Z,3.47
2022-09-05T01:58:42.452Z,3.70
2022-09-05T02:01:25.139Z,3.88
2022-09-05T02:04:08.175Z,3.90
2022-09-05T02:06:43.974Z,4.07
2022-09-05T02:09:21.620Z,3.80
2022-09-05T02:11:53.450Z,3.28
2022-09-05T02:14:34.166Z,3.53
2022-09-05T02:17:25.864Z,3.67
2022-09-05T02:20:04.052Z,3.75
2022-09-05T02:22:35.965Z,3.25
2022-09-05T02:26:00.354Z,3.33
2022-09-05T02:28:04.983Z,3.28
2022-09-05T02:30:36.035Z,4.00
2022-09-05T02:33:10.504Z,3.55
2022-09-05T02:35:42.845Z,3.58
2022-09-05T02:42:32.498Z,3.92
2022-09-05T02:45:10.844Z,3.55
2022-09-05T02:45:21.519Z,3.50
2022-09-05T02:46:51.553Z,3.63
2022-09-05T02:52:21.276Z,4.05
2022-09-05T02:57:27.121Z,3.80
2022-09-05T02:57:46.686Z,3.85
2022-09-05T02:58:08.998Z,3.50
2022-09-05T03:00:41.063Z,3.92
2022-09-05T03:03:20.549Z,3.85
2022-09-05T03:05:54.803Z,3.75
2022-09-05T03:08:32.921Z,3.55
2022-09-05T03:11:16.108Z,3.75
2022-09-05T03:14:05.395Z,3.90
2022-09-05T03:16:53.345Z,3.85
2022-09-05T03:19:46.068Z,3.90
2022-09-05T03:22:36.929Z,3.58
2022-09-05T03:25:29.463Z,3.95
2022-09-05T03:28:16.369Z,3.42
2022-09-05T03:30:57.475Z,4.00
2022-09-05T03:33:52.557Z,4.00
2022-09-05T03:36:34.605Z,3.95
2022-09-05T03:39:22.081Z,4.05
2022-09-05T03:42:05.298Z,4.07
2022-09-05T03:44:50.459Z,3.70
2022-09-05T03:47:33.668Z,4.00
2022-09-05T03:57:08.334Z,3.85
2022-09-05T03:57:10.816Z,4.32
2022-09-05T03:57:28.163Z,3.90
2022-09-05T03:59:24.716Z,4.35
2022-09-05T04:03:58.930Z,4.15
2022-09-05T04:08:24.351Z,4.20
2022-09-05T04:08:24.733Z,3.90
2022-09-05T04:10:33.855Z,3.95
2022-09-05T04:13:05.288Z,4.07
2022-09-05T04:15:37.180Z,4.18
2022-09-05T04:18:07.864Z,4.30
2022-09-05T04:20:40.867Z,3.92
2022-09-05T04:23:18.823Z,3.58
2022-09-05T04:26:09.308Z,4.13
2022-09-05T04:28:53.271Z,4.30
2022-09-05T04:31:28.747Z,3.83
2022-09-05T04:34:02.647Z,4.00
2022-09-05T04:36:33.084Z,4.10
2022-09-05T04:39:10.356Z,4.35
2022-09-05T04:41:41.969Z,4.20
2022-09-05T04:44:14.925Z,3.83
2022-09-05T04:46:48.698Z,4.30
2022-09-05T04:49:18.932Z,3.67
2022-09-05T04:52:03.718Z,4.13
2022-09-05T04:54:36.735Z,4.30
2022-09-05T04:57:14.006Z,4.10
2022-09-05T05:03:14.289Z,4.10
2022-09-05T05:06:08.154Z,4.53
2022-09-05T05:06:10.311Z,4.35
2022-09-05T05:08:26.786Z,4.50
2022-09-05T05:12:48.194Z,4.28
2022-09-05T05:17:56.499Z,4.60
2022-09-05T05:18:14.371Z,3.97
2022-09-05T05:19:43.759Z,4.35
2022-09-05T05:22:16.714Z,4.05
2022-09-05T05:24:47.060Z,4.30
2022-09-05T05:27:21.521Z,4.35
2022-09-05T05:29:51.054Z,4.47
2022-09-05T05:32:25.533Z,4.38
2022-09-05T05:35:11.520Z,4.30
2022-09-05T05:37:43.143Z,4.18
2022-09-05T05:40:12.874Z,4.68
2022-09-05T05:42:43.439Z,4.22
2022-09-05T05:45:18.822Z,4.32
2022-09-05T05:47:48.679Z,5.10
2022-09-05T05:50:28.785Z,4.38
2022-09-05T05:53:09.332Z,4.60
2022-09-05T05:55:52.487Z,3.55
2022-09-05T05:58:40.786Z,4.45
2022-09-05T06:01:38.028Z,4.53
2022-09-05T06:04:21.763Z,4.47
2022-09-05T06:07:10.086Z,4.38
2022-09-05T06:14:52.371Z,4.70
2022-09-05T06:14:59.827Z,4.50
2022-09-05T06:16:06.254Z,4.32
2022-09-05T06:18:53.084Z,4.32
2022-09-05T06:22:06.352Z,4.53
2022-09-05T06:24:43.224Z,4.03
2022-09-05T06:27:21.078Z,4.70
2022-09-05T06:29:55.659Z,3.92
2022-09-05T06:32:31.943Z,4.05
2022-09-05T06:35:18.343Z,3.65
2022-09-05T06:37:52.327Z,3.63
2022-09-05T06:40:22.446Z,3.80
2022-09-05T06:43:00.006Z,3.38
2022-09-05T06:45:33.052Z,3.70
2022-09-05T06:48:06.211Z,3.58
2022-09-05T06:51:06.872Z,4.20
2022-09-05T06:53:45.640Z,3.40
2022-09-05T06:56:25.914Z,3.58
2022-09-05T06:59:12.748Z,3.30
2022-09-05T07:02:00.775Z,3.40
2022-09-05T07:05:37.139Z,3.47
2022-09-05T07:07:28.475Z,3.30
2022-09-05T07:10:00.476Z,3.33
2022-09-05T07:12:31.012Z,3.03
2022-09-05T07:15:09.355Z,2.70
2022-09-05T07:17:59.733Z,2.90
2022-09-05T07:21:17.486Z,2.70
2022-09-05T07:24:05.825Z,2.80
2022-09-05T07:26:51.411Z,2.80
2022-09-05T07:29:15.176Z,2.50
2022-09-05T07:31:43.865Z,2.88
2022-09-05T07:34:21.081Z,2.42
2022-09-05T07:37:13.776Z,2.72
2022-09-05T07:39:44.451Z,2.90
2022-09-05T07:42:17.083Z,2.85
2022-09-05T07:44:48.789Z,2.60
2022-09-05T07:47:21.273Z,2.42
2022-09-05T07:50:06.435Z,2.75
2022-09-05T07:56:51.884Z,3.05
2022-09-05T07:57:00.803Z,2.40
2022-09-05T07:58:23.815Z,2.75
2022-09-05T08:00:56.501Z,2.58
2022-09-05T08:03:26.769Z,2.60
2022-09-05T08:05:55.873Z,2.47
2022-09-05T08:08:26.500Z,2.60
2022-09-05T08:11:24.658Z,2.42
2022-09-05T08:13:50.244Z,2.67
2022-09-05T08:16:19.829Z,2.30
2022-09-05T08:18:50.991Z,2.97
2022-09-05T08:21:27.547Z,2.60
2022-09-05T08:24:01.843Z,2.58
2022-09-05T08:26:38.069Z,2.33
2022-09-05T08:29:11.901Z,2.30
2022-09-05T08:31:45.732Z,2.00
2022-09-05T08:34:18.621Z,2.53
2022-09-05T08:37:00.552Z,2.20
2022-09-05T08:39:31.935Z,2.17
2022-09-05T08:42:10.766Z,2.40
2022-09-05T08:46:39.915Z,2.40
2022-09-05T08:47:45.707Z,2.38
2022-09-05T08:50:26.784Z,2.40
2022-09-05T08:53:04.259Z,2.50
2022-09-05T08:55:56.144Z,2.33
2022-09-05T08:58:45.418Z,2.50
2022-09-05T09:01:18.219Z,2.55
2022-09-05T09:03:56.055Z,1.95
2022-09-05T09:06:33.475Z,2.45
2022-09-05T09:09:10.280Z,2.20
2022-09-05T09:11:40.430Z,2.20
2022-09-05T09:14:43.691Z,2.70
2022-09-05T09:17:26.223Z,2.25
2022-09-05T09:19:56.436Z,2.35
2022-09-05T09:22:34.269Z,2.22
2022-09-05T09:25:14.470Z,2.20
2022-09-05T09:28:46.825Z,2.08
2022-09-05T09:30:41.891Z,2.38
2022-09-05T09:33:17.611Z,2.42
2022-09-05T09:35:48.996Z,2.08
2022-09-05T09:38:28.039Z,2.28
2022-09-05T09:41:15.020Z,2.30
2022-09-05T09:44:04.260Z,2.10
2022-09-05T09:46:39.274Z,2.30
2022-09-05T09:49:23.866Z,2.70
2022-09-05T09:52:20.925Z,2.10
2022-09-05T09:55:08.539Z,2.15
2022-09-05T09:58:01.123Z,2.45
2022-09-05T10:00:36.134Z,2.25
2022-09-05T10:07:04.624Z,2.42
2022-09-05T10:10:47.492Z,2.22
2022-09-05T10:10:52.399Z,2.45
2022-09-05T10:12:39.413Z,2.30
2022-09-05T10:15:31.182Z,2.50
2022-09-05T10:18:18.902Z,2.17
2022-09-05T10:21:15.171Z,2.20
2022-09-05T10:23:55.097Z,2.05
2022-09-05T10:26:35.185Z,2.35
2022-09-05T10:29:31.655Z,1.83
2022-09-05T10:35:09.783Z,2.30
2022-09-05T10:35:18.063Z,1.92
2022-09-05T10:37:41.614Z,1.95
2022-09-05T10:40:12.715Z,2.03
2022-09-05T10:42:59.890Z,2.35
2022-09-05T10:45:38.019Z,2.15
2022-09-05T10:48:13.043Z,2.15
2022-09-05T10:50:44.500Z,2.03
2022-09-05T10:53:39.490Z,2.20
2022-09-05T10:56:13.191Z,2.42
2022-09-05T11:02:24.155Z,2.00
2022-09-05T11:02:27.530Z,1.98
2022-09-05T11:04:46.597Z,2.30
2022-09-05T11:07:27.949Z,2.20
2022-09-05T11:10:12.267Z,2.15
2022-09-05T11:12:50.425Z,2.30
2022-09-05T11:15:31.519Z,2.40
2022-09-05T11:18:04.524Z,2.25
2022-09-05T11:20:53.863Z,1.80
2022-09-05T11:23:23.519Z,2.15
2022-09-05T11:26:00.961Z,2.22
2022-09-05T11:28:37.639Z,2.10
2022-09-05T11:31:14.807Z,2.50
2022-09-05T11:39:45.822Z,2.00
2022-09-05T11:39:57.098Z,2.35
2022-09-05T11:40:29.083Z,2.30
2022-09-05T11:42:43.279Z,2.40
2022-09-05T11:45:19.414Z,2.10
2022-09-05T11:48:05.506Z,1.88
2022-09-05T11:51:06.936Z,2.00
2022-09-05T11:53:50.194Z,2.20
2022-09-05T11:56:45.645Z,2.30
2022-09-05T11:59:33.381Z,1.90
2022-09-05T12:02:23.257Z,2.83
2022-09-05T12:05:50.216Z,2.35
2022-09-05T12:07:57.546Z,1.83
2022-09-05T12:10:46.074Z,2.05
2022-09-05T12:13:32.243Z,2.10
2022-09-05T12:16:08.545Z,2.22
2022-09-05T12:18:45.800Z,2.00
2022-09-05T12:21:22.927Z,2.00
2022-09-05T12:24:24.210Z,1.85
2022-09-05T12:27:43.065Z,2.35
2022-09-05T12:29:45.579Z,2.60
2022-09-05T12:33:40.839Z,2.13
2022-09-05T12:36:11.564Z,2.33
2022-09-05T12:40:52.946Z,2.28
2022-09-05T12:41:46.221Z,2.38
2022-09-05T12:44:38.664Z,2.10
2022-09-05T12:46:47.161Z,2.20
2022-09-05T12:49:20.617Z,1.92
2022-09-05T12:51:57.424Z,2.33
2022-09-05T12:54:34.260Z,2.28
2022-09-05T12:59:56.705Z,2.10
2022-09-05T13:02:57.627Z,1.90
2022-09-05T13:03:11.190Z,2.10
2022-09-05T13:05:47.821Z,2.20
2022-09-05T13:08:21.691Z,1.80
2022-09-05T13:14:48.857Z,2.10
2022-09-05T13:14:58.834Z,2.00
2022-09-05T13:16:39.732Z,1.90
2022-09-05T13:19:16.859Z,2.00
2022-09-05T13:21:52.669Z,1.80
2022-09-05T13:24:27.700Z,2.00
2022-09-05T13:26:57.669Z,1.63
2022-09-05T13:29:27.399Z,2.10
2022-09-05T13:37:59.417Z,2.20
2022-09-05T13:38:03.041Z,1.95
2022-09-05T13:38:37.742Z,2.20
2022-09-05T13:40:50.608Z,1.83
2022-09-05T13:43:26.508Z,1.90
2022-09-05T13:46:04.892Z,1.90
2022-09-05T13:51:37.950Z,1.90
2022-09-05T13:54:27.212Z,2.10
2022-09-05T13:57:01.483Z,2.08
2022-09-05T13:59:30.473Z,1.95
2022-09-05T14:02:29.176Z,1.90
2022-09-05T14:05:19.520Z,1.92
2022-09-05T14:08:18.006Z,1.98
2022-09-05T14:11:08.170Z,1.67
2022-09-05T14:13:42.543Z,1.80
2022-09-05T14:16:15.379Z,2.00
2022-09-05T14:19:00.259Z,1.98
2022-09-05T14:21:30.417Z,1.65
2022-09-05T14:24:03.550Z,1.65
2022-09-05T14:26:36.732Z,1.73
2022-09-05T14:29:14.314Z,1.73
2022-09-05T14:37:43.962Z,1.83
2022-09-05T14:37:55.079Z,1.90
2022-09-05T14:38:09.410Z,2.10
2022-09-05T14:40:56.510Z,2.00
2022-09-05T14:43:42.611Z,2.03
2022-09-05T14:46:28.761Z,2.10
2022-09-05T14:49:11.785Z,1.80
2022-09-05T14:51:46.900Z,2.30
2022-09-05T15:00:44.494Z,2.47
2022-09-05T15:02:40.964Z,2.08
2022-09-05T15:03:03.847Z,2.15
2022-09-05T15:05:41.496Z,1.73
2022-09-05T15:09:07.055Z,1.80
2022-09-05T15:12:15.017Z,2.03
2022-09-05T15:13:57.455Z,1.90
2022-09-05T15:16:26.745Z,2.20
2022-09-05T15:18:56.349Z,1.88
2022-09-05T15:21:33.614Z,2.00
2022-09-05T15:24:04.237Z,2.05
2022-09-05T15:26:48.563Z,1.92
2022-09-05T15:29:24.441Z,2.15
2022-09-05T15:32:09.190Z,2.00
2022-09-05T15:34:39.266Z,1.90
2022-09-05T15:37:23.248Z,1.90
2022-09-05T15:40:01.631Z,1.88
2022-09-05T15:42:32.298Z,2.15
2022-09-05T15:45:10.946Z,1.80
2022-09-05T15:47:42.456Z,1.83
2022-09-05T15:50:21.817Z,1.95
2022-09-05T15:52:53.477Z,1.80
2022-09-05T15:55:25.049Z,2.25
2022-09-05T15:57:55.513Z,2.45
2022-09-05T16:00:51.252Z,2.10
2022-09-05T16:05:53.379Z,2.08
2022-09-05T16:10:39.839Z,2.40
2022-09-05T16:10:42.375Z,1.60
2022-09-05T16:12:13.743Z,2.42
2022-09-05T16:14:52.854Z,2.10
2022-09-05T16:23:18.432Z,1.90
2022-09-05T16:23:27.187Z,1.80
2022-09-05T16:26:11.321Z,1.90
2022-09-05T16:28:42.991Z,2.00
2022-09-05T16:31:14.919Z,2.85
2022-09-05T16:33:44.605Z,2.13
2022-09-05T16:36:16.577Z,2.13
2022-09-05T16:38:49.625Z,1.80
2022-09-05T16:41:24.165Z,2.22
2022-09-05T16:43:54.744Z,2.75
2022-09-05T16:46:24.983Z,2.22
2022-09-05T16:48:55.433Z,2.13
2022-09-05T16:51:35.443Z,2.13
2022-09-05T16:54:10.375Z,2.20
2022-09-05T16:56:41.241Z,2.08
2022-09-05T16:59:11.245Z,2.08
2022-09-05T17:01:56.227Z,2.28
2022-09-05T17:04:39.259Z,2.55
2022-09-05T17:07:11.937Z,2.60
2022-09-05T17:09:42.022Z,3.00
2022-09-05T17:12:11.999Z,2.20
2022-09-05T17:14:42.521Z,2.20
2022-09-05T17:17:43.920Z,2.95
2022-09-05T17:20:09.663Z,2.85
2022-09-05T17:25:04.112Z,3.17
2022-09-05T17:29:26.821Z,2.58
2022-09-05T17:29:33.612Z,2.90
2022-09-05T17:31:53.728Z,2.75
2022-09-05T17:34:50.363Z,2.70
2022-09-05T17:37:36.474Z,2.70
2022-09-05T17:40:14.584Z,3.00
2022-09-05T17:42:47.724Z,2.70
2022-09-05T17:45:18.783Z,2.83
2022-09-05T17:47:49.992Z,2.60
2022-09-05T17:50:20.227Z,2.60
2022-09-05T17:53:25.604Z,3.05
2022-09-05T17:56:12.692Z,2.60
2022-09-05T17:59:01.251Z,2.70
2022-09-05T18:01:32.478Z,3.10
2022-09-05T18:04:16.167Z,2.75
2022-09-05T18:06:59.713Z,2.60
2022-09-05T18:09:58.937Z,3.10
2022-09-05T18:13:30.972Z,2.60
2022-09-05T18:15:45.684Z,3.33
2022-09-05T18:19:29.499Z,2.72
2022-09-05T18:21:23.142Z,2.83
2022-09-05T18:23:54.816Z,2.90
2022-09-05T18:26:25.038Z,3.00
2022-09-05T18:28:59.134Z,3.00
2022-09-05T18:31:51.948Z,2.88
2022-09-05T18:34:39.374Z,3.08
2022-09-05T18:37:23.227Z,2.65
2022-09-05T18:40:05.920Z,2.63
2022-09-05T18:42:37.530Z,3.05
2022-09-05T18:45:15.581Z,2.95
2022-09-05T18:47:53.140Z,2.95
2022-09-05T18:50:29.425Z,2.65
2022-09-05T18:53:10.434Z,3.10
2022-09-05T18:56:12.453Z,3.13
2022-09-05T18:58:51.560Z,2.90
2022-09-05T19:01:28.330Z,3.03
2022-09-05T19:03:59.819Z,3.55
2022-09-05T19:06:36.692Z,3.78
2022-09-05T19:09:07.324Z,3.60
2022-09-05T19:11:37.767Z,3.83
2022-09-05T19:14:29.138Z,3.35
2022-09-05T19:17:04.054Z,3.33
2022-09-05T19:20:05.107Z,3.72
2022-09-05T19:23:09.654Z,3.38
2022-09-05T19:25:37.308Z,3.47
2022-09-05T19:31:45.896Z,3.40
2022-09-05T19:36:53.254Z,3.28
2022-09-05T19:37:08.197Z,3.15
2022-09-05T19:37:10.159Z,3.17
2022-09-05T19:43:10.859Z,3.42
2022-09-05T19:47:36.730Z,3.20
2022-09-05T19:47:49.952Z,3.72
2022-09-05T19:48:17.516Z,3.33
2022-09-05T19:50:48.325Z,3.47
2022-09-05T19:53:17.514Z,2.90
2022-09-05T19:55:46.249Z,2.88
2022-09-05T19:58:19.755Z,2.75
2022-09-05T20:01:01.278Z,3.00
2022-09-05T20:03:39.528Z,2.75
2022-09-05T20:06:26.782Z,3.40
2022-09-05T20:09:08.588Z,3.03
2022-09-05T20:11:45.727Z,2.90
2022-09-05T20:14:22.628Z,3.40
2022-09-05T20:16:51.622Z,3.60
2022-09-05T20:19:28.677Z,3.40
2022-09-05T20:22:18.784Z,3.25
2022-09-05T20:24:48.916Z,3.47
2022-09-05T20:27:17.633Z,4.10
2022-09-05T20:29:54.917Z,3.65
2022-09-05T20:32:38.532Z,4.20
2022-09-05T20:39:57.587Z,4.07
2022-09-05T20:43:15.404Z,3.75
2022-09-05T20:43:32.089Z,3.60
2022-09-05T20:43:52.667Z,3.58
2022-09-05T20:48:57.396Z,3.40
2022-09-05T20:54:09.054Z,3.50
2022-09-05T20:54:28.651Z,2.97
2022-09-05T20:55:39.492Z,2.90
2022-09-05T20:58:10.670Z,2.70
2022-09-05T21:00:39.811Z,2.90
2022-09-05T21:03:09.159Z,3.10
2022-09-05T21:05:39.828Z,3.08
2022-09-05T21:08:23.285Z,2.78
2022-09-05T21:10:55.544Z,2.80
2022-09-05T21:13:25.772Z,2.92
2022-09-05T21:15:55.402Z,3.10
2022-09-05T21:18:33.033Z,3.20
2022-09-05T21:21:02.526Z,3.40
2022-09-05T21:23:40.427Z,3.28
2022-09-05T21:26:24.382Z,3.25
2022-09-05T21:29:03.908Z,2.97
2022-09-05T21:31:32.659Z,3.33
2022-09-05T21:34:02.929Z,2.90
2022-09-05T21:36:34.176Z,3.13
2022-09-05T21:39:04.396Z,3.30
2022-09-05T21:41:34.244Z,3.63
2022-09-05T21:47:34.514Z,3.40
2022-09-05T21:47:41.335Z,3.17
2022-09-05T21:49:44.993Z,3.28
2022-09-05T21:52:15.051Z,3.78
2022-09-05T21:59:16.494Z,3.63
2022-09-05T21:59:29.711Z,3.28
2022-09-05T22:00:23.559Z,3.17
2022-09-05T22:02:53.341Z,2.80
2022-09-05T22:05:24.469Z,3.25
2022-09-05T22:07:54.497Z,3.22
2022-09-05T22:10:23.401Z,3.25
2022-09-05T22:13:13.177Z,3.40
2022-09-05T22:15:41.614Z,3.17
2022-09-05T22:18:17.669Z,3.45
2022-09-05T22:21:01.336Z,3.67
2022-09-05T22:23:37.164Z,3.30
2022-09-05T22:26:06.322Z,3.28
2022-09-05T22:28:38.354Z,3.20
2022-09-05T22:31:07.600Z,3.20
2022-09-05T22:33:36.461Z,3.00
2022-09-05T22:36:05.258Z,3.03
2022-09-05T22:38:34.324Z,3.40
2022-09-05T22:41:06.029Z,3.45
2022-09-05T22:43:36.200Z,2.90
2022-09-05T22:46:04.674Z,2.88
2022-09-05T22:48:33.355Z,2.95
2022-09-05T22:51:01.753Z,3.25
2022-09-05T22:53:30.295Z,2.90
2022-09-05T22:55:59.696Z,3.22
2022-09-05T22:58:28.613Z,3.03
2022-09-05T23:00:58.424Z,2.97
2022-09-05T23:03:26.856Z,2.78
2022-09-05T23:05:55.200Z,3.10
2022-09-05T23:08:23.616Z,2.95
2022-09-05T23:10:52.054Z,2.90
2022-09-05T23:13:20.425Z,2.67
2022-09-05T23:15:49.087Z,2.65
2022-09-05T23:18:19.153Z,2.90
2022-09-05T23:20:47.536Z,2.97
2022-09-05T23:23:15.911Z,3.00
2022-09-05T23:25:44.294Z,3.08
2022-09-05T23:28:12.691Z,2.70
2022-09-05T23:30:41.553Z,3.05
2022-09-05T23:33:10.863Z,3.30
2022-09-05T23:35:40.632Z,2.63
2022-09-05T23:38:11.210Z,3.30
2022-09-05T23:40:39.637Z,3.00
2022-09-05T23:43:08.442Z,2.80
2022-09-05T23:45:36.872Z,3.42
2022-09-05T23:48:05.308Z,2.90
2022-09-05T23:50:33.732Z,3.03
2022-09-05T23:53:05.651Z,3.22
2022-09-05T23:55:34.074Z,4.43
2022-09-05T23:58:02.455Z,4.35
